Aérodrome :
LOGIN :

S'inscrire | Disclaimer

   EN    FR    IT 

 










Légende :    VFR   VFR Marginal   IFR   IFR Intensif   IFR Très Intensif
Visi : 
Plafond : 
>= 8 km
>= 3000ft
5 à 8 km
1000 à 3000 ft
1500m à 5 km
500 à 1000 ft
800 à 1500m
200 à 500 ft
< 800m
< 200 ft
Symboles :   Orages  Brouillard  Fortes neiges  Fortes précipitations  Vent > 20 kt
SIGMETs :   Divers  Orages  Givrage  Turbulence  Onde Orograph.  Cendres Volcan.






- Altitude de l'aérodrome : 220 ft
- Code IATA : CWL


EGFF - Cardiff Rhoose

DERNIER METAR :
  • 182120Z AUTO 29015KT 9999 FEW024 06/03 Q1017

METARs EXPIRÉS :
  • 182050Z AUTO 29017KT 9999 FEW034 06/03 Q1017
  • 182020Z AUTO 29015KT 9999 BKN038 06/03 Q1017
  • 181950Z AUTO 29021G33KT 9999 -RA SCT028/// //////CB 06/03 Q1016
  • 181920Z AUTO 29016KT 9999 FEW024 07/03 Q1016
  • 181850Z AUTO 28016KT 9999 FEW031/// //////CB 07/03 Q1015

TAF TAF EGFF
Valide du 18 à 18h jusqu'au 19 à 18h UTC


181657Z 1818/1918 27015KT 9999 SCT025
TEMPO 1818/1821 27020G30KT 6000 SHRA
PROB30
TEMPO 1818/1819 26025G40KT 3000 +SHRAGS BKN012 BKN020CB
BECMG 1907/1910 20010KT
TEMPO 1908/1915 8000 -RA BKN014
PROB40
TEMPO 1909/1914 4000 RA BKN008
ATIS : +44 1446 729 319



MET'MAP, la Météo Aéronautique d'un coup d'oeil ! - Copyright ORBIFLY Décembre 2007 - Disclaimer

ORBIFLY MET'MAP TEAM :

Programmation & Développement : Alexandra Zaïnal
Sur une idée originale de : Baudouin d'Aumeries
Assistance à la programmation : Marc-Olivier Méhu
Soutien technique & logistique : Manuel Goepfert

Contact : metmap@orbifly.com




SOURCES & CREDITS :

   NOAA